X  Zatvori METAR Podaci o vazduhoplovstvu     LYNI Nis Airport
Temperatura
14°C Temperatura
6°C Tačka Rose
59% Vlaga



Vetar
3 MPH
5 KM/H
1 M/S
3 KTS



150°
JJI
Trenutna situacija

Partly Cloudy Partly Cloudy
Vazdušni pritisak 1013.88 (hPa) - 29.94 (inHg)
Vidljivost 6 (Milja) - 9.7 (km)
Aerodrom
Aerodromski kod. LYNI

Lokacija: Nis Airport
Udaljenost: 63 (mi)

Metar:
LYNI 241630Z 15003KT 120V180 9999 FEW050 14/06 Q1014 NOSIG

Vreme: 24-02-2024 17:30 CET